Mansfield, OH

1:54 PM EST on January 25, 2015 (GMT -0500)
Lexington | Change Station
CLOSE
Current Station
Personal Weather Station
Location: Mansfield, OH
Elevation: 1309 ft
Nearby Weather Stations
Active Advisory: Winter Weather Advisory Active Notice: Public Information Statement

Elev 1309 ft 40.67 °N, 82.59 °W | Updated 4 seconds ago

Snow
Snow
30.6 °F
Feels Like 31 °F
N
2.0
Wind Variable Wind from NNE
Gusts 2.5 mph

Today
High -- | Low -- °F
--% Chance of Precip.
Yesterday
High -- | Low -- °F
Precip. -- in
7:46 AM 5:39 PM
Waxing Crescent, 34% visible
Pressure 29.76 in
Visibility 1.2 miles
Clouds Scattered Clouds 900 ft
Scattered Clouds 1300 ft
Overcast 2300 ft
Windchill 31 °F
Dew Point 28 °F
Humidity 89%
Rainfall 0.00 in
Snow Depth Not available.
UV 1.0 out of 12
Pollen .10 out of 12
Air Quality Not available.
Flu Activity Not available.
SPECI KMFD 251843Z 04008KT 1 1/4SM -SN BR SCT009 SCT013 OVC023 M02/M04 A2976 RMK AO2 P0001 T10221039

More Conditions Fewer Conditions

Pressure 29.76 in
Visibility 1.2 miles
Clouds Scattered Clouds 900 ft
Scattered Clouds 1300 ft
Overcast 2300 ft
Windchill 31 °F
Dew Point 28 °F
Humidity 89%
Rainfall 0.00 in
Snow Depth Not available.
UV 1.0 out of 12
Pollen .10 out of 12
Air Quality Not available.
Flu Activity Not available.
SPECI KMFD 251843Z 04008KT 1 1/4SM -SN BR SCT009 SCT013 OVC023 M02/M04 A2976 RMK AO2 P0001 T10221039

More Conditions Fewer Conditions

10-Day Weather Forecast

Almanac

Astronomy

Jan. 25, 2015 Rise Set
Actual Time
Civil Twilight
Nautical Twilight
Astronomical Twilight
Moon
Length of Visible Light
Length of Day
Tomorrow will be .
, % of the Moon is Illuminated

Today's Extremes

State Highs State Lows

Community

WunderPhotos

Upload Photos

1,790,017 photos uploaded!

WunderBlogs® & News

Nearby

Air Quality

  Air Quality AQ Index Pollutant
Not available.

Snow Depth

Station Depth Elevation

Earthquake Activity

City Distance Mag. Time & Date
Minimum magnitude displayed is 2.5.

Coastal Water Temperatures

Place Temperature

Nearby Weather Stations